Time;durP1;ratioP1;P1;durP2;ratioP2;P2;SDS_P1;SDS_P2;PMS_P1;PMS_P2;Temp;Humidity;BMP_temperature;BMP_pressure;BME280_temperature;BME280_humidity;BME280_pressure;Samples;Min_cycle;Max_cycle;Signal;HPM_P1;HPM_P2
2022/05/16 00:02:19;;;;;;;;;;;;;;;13.24;51.66;101035.41;4958291;28;98897;-45
2022/05/16 00:04:45;;;;;;;;;;;;;;;13.17;51.89;101037.53;4961317;28;98474;-57
2022/05/16 00:07:12;;;;;;;;;;;;;;;13.14;51.88;101037.25;4960665;28;98093;-45
2022/05/16 00:09:38;;;;;;;;;;;;;;;13.12;51.94;101037.50;4959022;28;99643;-58
2022/05/16 00:12:04;;;;;;;;;;;;;;;13.10;51.72;101034.28;4951797;28;106324;-57
2022/05/16 00:14:30;;;;;;;;;;;;;;;13.10;52.29;101036.19;4940711;28;126826;-45
2022/05/16 00:16:56;;;;;;;;;;;;;;;13.05;52.46;101045.09;4955139;28;127734;-46
2022/05/16 00:19:22;;;;;;;;;;;;;;;12.95;53.07;101045.91;4949757;28;117699;-57
2022/05/16 00:21:48;;;;;;;;;;;;;;;12.86;52.51;101041.28;4953409;28;128384;-46
2022/05/16 00:24:15;;;;;;;;;;;;;;;12.81;52.78;101036.69;4938813;28;128136;-58
2022/05/16 00:26:40;;;;;;;;;;;;;;;12.77;52.78;101041.81;4960043;28;98006;-45
2022/05/16 00:29:06;;;;;;;;;;;;;;;12.72;53.12;101035.56;4952822;28;98306;-58
2022/05/16 00:31:32;;;;;;;;;;;;;;;12.68;53.07;101039.91;4942502;28;129454;-45
2022/05/16 00:33:59;;;;;;;;;;;;;;;12.64;53.25;101036.91;4959385;28;128129;-57
2022/05/16 00:36:25;;;;;;;;;;;;;;;12.57;53.29;101044.47;4960602;28;98745;-45
2022/05/16 00:38:53;;;;;;;;;;;;;;;12.57;53.58;101040.94;4949118;28;115517;-57
2022/05/16 00:41:19;;;;;;;;;;;;;;;12.57;53.55;101046.34;4963360;28;98137;-58
2022/05/16 00:43:55;;;;;;;;;;;;;;;12.57;53.81;101044.47;4963977;28;100222;-57
2022/05/16 00:46:22;;;;;;;;;;;;;;;12.53;53.97;101038.78;4962954;28;99226;-45
2022/05/16 00:48:48;;;;;;;;;;;;;;;12.49;53.83;101043.09;4958120;28;98464;-48
2022/05/16 00:51:23;;;;;;;;;;;;;;;12.47;54.12;101049.84;4943792;28;99225;-57
2022/05/16 00:53:50;;;;;;;;;;;;;;;12.50;54.15;101052.03;4958701;28;98293;-45
2022/05/16 00:56:16;;;;;;;;;;;;;;;12.52;54.11;101047.16;4945176;28;112648;-57
2022/05/16 00:58:42;;;;;;;;;;;;;;;12.53;54.21;101065.81;4960163;28;115482;-45
2022/05/16 01:06:40;;;;;;;;;;;;;;;12.59;54.16;101055.84;4942334;28;97816;-57
2022/05/16 01:09:07;;;;;;;;;;;;;;;12.59;54.09;101058.53;4949243;28;112580;-57
2022/05/16 01:11:33;;;;;;;;;;;;;;;12.55;53.74;101052.03;4960920;28;100479;-45
2022/05/16 01:13:59;;;;;;;;;;;;;;;12.50;53.93;101060.97;4961391;28;114472;-57
2022/05/16 01:16:25;;;;;;;;;;;;;;;12.49;54.22;101056.59;4962843;28;98634;-46
2022/05/16 01:18:51;;;;;;;;;;;;;;;12.48;54.42;101051.47;4959627;28;97652;-57
2022/05/16 01:21:36;;;;;;;;;;;;;;;12.45;53.94;101050.09;4943136;28;126444;-45
2022/05/16 01:24:10;;;;;;;;;;;;;;;12.44;54.28;101042.28;4961573;28;98850;-45
2022/05/16 01:26:36;;;;;;;;;;;;;;;12.40;54.27;101046.59;4962938;28;126171;-57
2022/05/16 01:29:02;;;;;;;;;;;;;;;12.39;54.10;101042.25;4957883;28;97985;-46
2022/05/16 01:31:28;;;;;;;;;;;;;;;12.35;54.10;101050.09;4945960;28;98830;-46
2022/05/16 01:33:54;;;;;;;;;;;;;;;12.34;54.40;101053.03;4962379;28;123005;-47
2022/05/16 01:36:20;;;;;;;;;;;;;;;12.32;54.13;101049.81;4962292;28;98451;-45
2022/05/16 01:38:46;;;;;;;;;;;;;;;12.27;54.27;101037.09;4945314;28;104499;-57
2022/05/16 01:41:14;;;;;;;;;;;;;;;12.27;54.22;101035.19;4961860;28;126953;-58
2022/05/16 01:43:42;;;;;;;;;;;;;;;12.27;54.43;101034.38;4962931;28;98881;-57
2022/05/16 01:46:08;;;;;;;;;;;;;;;12.26;54.58;101041.69;4963022;28;98232;-45
2022/05/16 01:48:34;;;;;;;;;;;;;;;12.22;54.39;101035.19;4962126;28;97736;-57
2022/05/16 01:51:02;;;;;;;;;;;;;;;12.20;54.18;101036.50;4941170;28;127452;-57
2022/05/16 01:53:28;;;;;;;;;;;;;;;12.18;54.84;101039.50;4956896;28;98830;-57
2022/05/16 01:55:54;;;;;;;;;;;;;;;12.12;55.01;101037.81;4946412;28;97913;-45
2022/05/16 01:58:20;;;;;;;;;;;;;;;12.04;54.48;101025.63;4942085;28;117229;-57
2022/05/16 02:00:46;;;;;;;;;;;;;;;12.01;55.00;101023.44;4958679;28;123117;-57
2022/05/16 02:03:12;;;;;;;;;;;;;;;11.98;54.89;101023.97;4960142;28;127518;-58
2022/05/16 02:05:40;;;;;;;;;;;;;;;11.95;54.94;101015.59;4961932;28;126731;-47
2022/05/16 02:08:07;;;;;;;;;;;;;;;11.91;54.90;101022.59;4949654;28;98292;-57
2022/05/16 02:10:33;;;;;;;;;;;;;;;11.88;55.08;101023.94;4943054;28;99295;-57
2022/05/16 02:12:59;;;;;;;;;;;;;;;11.87;54.86;101011.50;4943332;28;99174;-46
2022/05/16 02:15:27;;;;;;;;;;;;;;;11.89;54.54;101008.53;4942428;28;98257;-57
2022/05/16 02:17:53;;;;;;;;;;;;;;;11.89;54.75;101003.94;4943686;28;98113;-57
2022/05/16 02:20:19;;;;;;;;;;;;;;;11.93;54.32;101009.63;4954247;28;125866;-44
2022/05/16 02:25:32;;;;;;;;;;;;;;;11.97;54.50;101008.03;4960818;28;98262;-45
2022/05/16 02:27:58;;;;;;;;;;;;;;;11.98;54.47;101001.53;4962646;28;97919;-57
2022/05/16 02:30:24;;;;;;;;;;;;;;;11.99;54.48;100997.78;4947414;28;128863;-57
2022/05/16 02:32:50;;;;;;;;;;;;;;;11.99;54.52;100995.91;4956689;28;98014;-57
2022/05/16 02:35:16;;;;;;;;;;;;;;;11.99;54.46;100995.09;4960453;28;126880;-57
2022/05/16 02:37:42;;;;;;;;;;;;;;;12.00;54.11;100980.50;4961377;28;115787;-46
2022/05/16 02:40:09;;;;;;;;;;;;;;;12.02;54.71;100984.56;4954273;28;116480;-57
2022/05/16 02:42:35;;;;;;;;;;;;;;;12.04;54.17;100984.28;4960987;28;127562;-58
2022/05/16 02:45:01;;;;;;;;;;;;;;;12.06;53.82;100984.00;4961455;28;98318;-57
2022/05/16 02:47:27;;;;;;;;;;;;;;;12.06;54.31;100976.72;4961311;28;116148;-45
2022/05/16 02:49:53;;;;;;;;;;;;;;;12.08;54.46;100989.97;4951552;28;126748;-57
2022/05/16 02:52:19;;;;;;;;;;;;;;;12.09;53.92;100991.59;4945890;28;127736;-57
2022/05/16 02:54:45;;;;;;;;;;;;;;;12.11;53.95;100989.47;4960027;28;126810;-57
2022/05/16 02:57:11;;;;;;;;;;;;;;;12.12;54.02;100980.28;4961757;28;98184;-44
2022/05/16 02:59:37;;;;;;;;;;;;;;;12.15;53.82;100982.44;4953723;28;128528;-45
2022/05/16 03:02:04;;;;;;;;;;;;;;;12.16;53.82;100982.16;4942913;28;98897;-46
2022/05/16 03:04:31;;;;;;;;;;;;;;;12.18;54.00;100981.91;4941258;28;121080;-46
2022/05/16 03:06:57;;;;;;;;;;;;;;;12.20;53.52;100982.47;4941912;28;101784;-57
2022/05/16 03:09:23;;;;;;;;;;;;;;;12.22;53.74;100988.41;4941322;28;128009;-57
2022/05/16 03:11:49;;;;;;;;;;;;;;;12.24;53.76;100978.16;4952930;28;98357;-46
2022/05/16 03:14:15;;;;;;;;;;;;;;;12.25;53.70;100985.97;4940374;28;125624;-45
2022/05/16 03:16:41;;;;;;;;;;;;;;;12.29;53.46;100980.84;4941210;28;117343;-44
2022/05/16 03:19:07;;;;;;;;;;;;;;;12.32;53.46;100976.81;4941717;28;111414;-44
2022/05/16 03:21:33;;;;;;;;;;;;;;;12.35;53.20;100998.72;4957199;28;99220;-57
2022/05/16 03:23:59;;;;;;;;;;;;;;;12.33;53.51;100981.94;4941215;28;127367;-57
2022/05/16 03:26:25;;;;;;;;;;;;;;;12.29;53.46;100978.97;4941046;28;117535;-45
2022/05/16 03:28:51;;;;;;;;;;;;;;;12.28;53.30;100982.75;4940248;28;118655;-45
2022/05/16 03:31:17;;;;;;;;;;;;;;;12.28;53.53;100982.75;4958296;28;129077;-57
2022/05/16 03:33:43;;;;;;;;;;;;;;;12.27;53.79;100978.44;4960169;28;123091;-44
2022/05/16 03:36:09;;;;;;;;;;;;;;;12.27;53.41;100973.03;4960147;28;115339;-44
2022/05/16 03:41:20;;;;;;;;;;;;;;;12.29;53.76;100970.84;4957685;28;98541;-47
2022/05/16 03:43:46;;;;;;;;;;;;;;;12.29;53.78;100980.84;4961129;28;98265;-57
2022/05/16 03:46:12;;;;;;;;;;;;;;;12.27;53.31;100981.13;4960250;28;98103;-45
2022/05/16 03:48:38;;;;;;;;;;;;;;;12.27;53.45;100977.63;4941436;28;99558;-45
2022/05/16 03:51:04;;;;;;;;;;;;;;;12.26;53.41;100975.97;4957110;28;98332;-44
2022/05/16 03:53:30;;;;;;;;;;;;;;;12.27;53.62;100972.22;4959766;28;99287;-45
2022/05/16 03:55:56;;;;;;;;;;;;;;;12.32;53.41;100974.13;4960031;28;116707;-46
2022/05/16 03:58:22;;;;;;;;;;;;;;;12.36;53.48;100967.09;4959488;28;127243;-46
2022/05/16 04:00:48;;;;;;;;;;;;;;;12.39;53.42;100967.38;4947233;28;98871;-57
2022/05/16 04:03:14;;;;;;;;;;;;;;;12.43;53.28;100971.16;4953871;28;128201;-45
2022/05/16 04:05:40;;;;;;;;;;;;;;;12.48;53.01;100973.06;4960482;28;97861;-45
2022/05/16 04:08:07;;;;;;;;;;;;;;;12.50;53.13;100966.31;4959060;28;110516;-46
2022/05/16 04:10:33;;;;;;;;;;;;;;;12.55;53.21;100975.53;4960225;28;98225;-45
2022/05/16 04:12:59;;;;;;;;;;;;;;;12.57;52.85;100966.03;4958611;28;126990;-57
2022/05/16 04:15:26;;;;;;;;;;;;;;;12.61;53.04;100969.03;4959574;28;98303;-57
2022/05/16 04:17:51;;;;;;;;;;;;;;;12.65;53.11;100956.59;4946422;28;98562;-57
2022/05/16 04:20:18;;;;;;;;;;;;;;;12.69;52.97;100950.41;4939718;28;127246;-57
2022/05/16 04:22:44;;;;;;;;;;;;;;;12.73;53.02;100958.75;4943511;28;97996;-57
2022/05/16 04:25:12;;;;;;;;;;;;;;;12.78;53.03;100961.47;4940658;28;97846;-56
2022/05/16 04:27:38;;;;;;;;;;;;;;;12.82;52.77;100961.75;4940613;28;99004;-57
2022/05/16 04:30:05;;;;;;;;;;;;;;;12.88;52.85;100963.38;4938706;28;127261;-46
2022/05/16 04:32:31;;;;;;;;;;;;;;;12.92;52.72;100959.03;4940029;28;125684;-57
2022/05/16 04:34:57;;;;;;;;;;;;;;;12.97;52.78;100959.06;4959852;28;112877;-57
2022/05/16 04:37:23;;;;;;;;;;;;;;;12.99;52.78;100957.69;4959446;28;102575;-57
2022/05/16 04:39:49;;;;;;;;;;;;;;;13.06;52.98;100962.03;4948727;28;106548;-45
2022/05/16 04:44:59;;;;;;;;;;;;;;;13.20;52.65;100971.19;4936966;28;97923;-57
2022/05/16 04:47:26;;;;;;;;;;;;;;;13.27;52.35;100977.19;4936429;28;128258;-45
2022/05/16 04:49:53;;;;;;;;;;;;;;;13.34;52.32;100972.28;4936533;28;99121;-46
2022/05/16 04:52:19;;;;;;;;;;;;;;;13.42;52.37;100979.88;4938154;28;97806;-46
2022/05/16 04:54:48;;;;;;;;;;;;;;;13.48;52.45;100980.69;4940767;28;97818;-45
2022/05/16 04:57:14;;;;;;;;;;;;;;;13.58;52.14;100979.84;4942673;28;98896;-46
2022/05/16 04:59:40;;;;;;;;;;;;;;;13.69;51.81;100976.81;4936381;28;98950;-57
2022/05/16 05:02:06;;;;;;;;;;;;;;;13.85;51.83;100971.34;4936808;28;126687;-46
2022/05/16 05:04:32;;;;;;;;;;;;;;;14.05;51.37;100970.47;4936803;28;117378;-45
2022/05/16 05:06:57;;;;;;;;;;;;;;;14.18;51.27;100967.13;4935407;28;123359;-46
2022/05/16 05:09:23;;;;;;;;;;;;;;;14.37;50.99;100970.81;4936250;28;120481;-46
2022/05/16 05:14:34;;;;;;;;;;;;;;;14.68;50.45;100971.47;4941060;28;98245;-57
2022/05/16 05:17:01;;;;;;;;;;;;;;;14.84;50.23;100974.88;4936600;28;98989;-47
2022/05/16 05:19:27;;;;;;;;;;;;;;;15.04;50.23;100973.09;4939821;28;98290;-47
2022/05/16 05:21:52;;;;;;;;;;;;;;;15.22;49.88;100975.91;4944924;28;127845;-48
2022/05/16 05:24:18;;;;;;;;;;;;;;;15.42;49.13;100971.38;4949146;28;116435;-58
2022/05/16 05:26:44;;;;;;;;;;;;;;;15.59;49.10;100973.63;4953927;28;127846;-57
2022/05/16 05:29:13;;;;;;;;;;;;;;;15.75;49.16;100977.03;4962107;28;115001;-58
2022/05/16 05:31:41;;;;;;;;;;;;;;;15.88;48.92;100974.44;4962144;28;97901;-46
2022/05/16 05:34:08;;;;;;;;;;;;;;;16.08;48.88;100975.28;4951840;28;97956;-45
2022/05/16 05:36:34;;;;;;;;;;;;;;;16.25;48.33;100981.03;4942901;28;98463;-46
2022/05/16 05:39:01;;;;;;;;;;;;;;;16.45;48.01;100975.28;4942930;28;98978;-46
2022/05/16 05:41:27;;;;;;;;;;;;;;;16.67;47.90;100979.34;4944586;28;98248;-46
2022/05/16 05:43:53;;;;;;;;;;;;;;;16.89;47.47;100971.38;4952440;28;119339;-46
2022/05/16 05:46:19;;;;;;;;;;;;;;;17.13;47.11;100970.44;4944000;28;103597;-58
2022/05/16 05:48:45;;;;;;;;;;;;;;;17.34;46.87;100966.25;4943438;28;98370;-45
2022/05/16 05:51:11;;;;;;;;;;;;;;;17.61;46.51;100972.84;4943229;28;97839;-46
2022/05/16 05:53:37;;;;;;;;;;;;;;;17.86;46.20;100966.91;4956613;28;97960;-57
2022/05/16 05:56:06;;;;;;;;;;;;;;;18.18;46.02;100972.53;4960714;28;125060;-46
2022/05/16 05:58:33;;;;;;;;;;;;;;;18.64;45.62;100975.84;4962490;28;117886;-46
2022/05/16 06:00:59;;;;;;;;;;;;;;;19.57;44.47;100975.16;4962472;28;98252;-50
2022/05/16 06:03:25;;;;;;;;;;;;;;;21.13;41.24;100965.50;4960769;28;118611;-58
2022/05/16 06:05:51;;;;;;;;;;;;;;;22.18;40.19;100973.00;4962477;28;99268;-47
2022/05/16 06:08:17;;;;;;;;;;;;;;;22.55;40.99;100965.75;4944560;28;118006;-47
2022/05/16 06:10:43;;;;;;;;;;;;;;;23.16;40.34;100976.19;4941795;28;125220;-47
2022/05/16 06:13:09;;;;;;;;;;;;;;;23.16;40.71;100976.19;4946125;28;97896;-58
2022/05/16 06:15:35;;;;;;;;;;;;;;;23.37;40.42;100972.56;4961908;28;98421;-57
2022/05/16 06:18:01;;;;;;;;;;;;;;;23.65;39.64;100976.25;4961665;28;128701;-58
2022/05/16 06:20:27;;;;;;;;;;;;;;;23.99;39.14;100975.03;4962152;28;97922;-58
2022/05/16 06:22:54;;;;;;;;;;;;;;;24.14;39.12;100978.22;4960083;28;97831;-58
2022/05/16 06:25:42;;;;;;;;;;;;;;;24.17;39.50;100978.34;4961923;28;98744;-58
2022/05/16 06:28:09;;;;;;;;;;;;;;;24.41;38.77;100969.25;4946671;28;98230;-58
2022/05/16 06:30:36;;;;;;;;;;;;;;;24.78;38.24;100963.59;4961657;28;98551;-57
2022/05/16 06:33:02;;;;;;;;;;;;;;;25.44;37.84;100951.16;4950539;28;97849;-58
2022/05/16 06:35:28;;;;;;;;;;;;;;;25.94;37.23;100955.94;4942880;28;97723;-45
2022/05/16 06:37:54;;;;;;;;;;;;;;;26.59;36.62;100960.09;4941758;28;129081;-56
2022/05/16 06:40:20;;;;;;;;;;;;;;;26.94;36.11;100965.50;4941870;28;127405;-56
2022/05/16 06:42:46;;;;;;;;;;;;;;;27.38;35.71;100962.38;4943538;28;97824;-45
2022/05/16 06:45:13;;;;;;;;;;;;;;;27.90;34.69;100958.06;4947584;28;128557;-56
2022/05/16 06:47:39;;;;;;;;;;;;;;;28.00;34.44;100951.09;4942913;28;97905;-55
2022/05/16 06:50:06;;;;;;;;;;;;;;;27.88;34.74;100947.38;4941239;28;127662;-46
2022/05/16 06:52:32;;;;;;;;;;;;;;;27.87;34.39;100954.09;4968790;28;98299;-55
2022/05/16 06:55:00;;;;;;;;;;;;;;;27.96;34.17;100955.78;4960746;28;112925;-57
2022/05/16 06:57:27;;;;;;;;;;;;;;;27.96;34.28;100953.03;4947828;28;98306;-58
2022/05/16 06:59:53;;;;;;;;;;;;;;;27.94;32.41;100950.59;4944561;28;98406;-57
2022/05/16 07:02:19;;;;;;;;;;;;;;;27.77;33.61;100951.94;4962342;28;97751;-49
2022/05/16 07:04:45;;;;;;;;;;;;;;;28.04;33.17;100951.94;4946573;28;127351;-49
2022/05/16 07:07:12;;;;;;;;;;;;;;;28.19;33.17;100947.41;4941221;28;127040;-47
2022/05/16 07:09:39;;;;;;;;;;;;;;;28.23;33.12;100948.25;4941187;28;98315;-47
2022/05/16 07:12:06;;;;;;;;;;;;;;;28.31;32.86;100955.47;4957067;28;97978;-58
2022/05/16 07:14:33;;;;;;;;;;;;;;;28.52;32.89;100950.22;4947706;28;128262;-48
2022/05/16 07:16:59;;;;;;;;;;;;;;;28.78;32.25;100954.06;4943930;28;98194;-47
2022/05/16 07:19:28;;;;;;;;;;;;;;;29.01;31.90;100954.75;4959606;28;127149;-58
2022/05/16 07:21:55;;;;;;;;;;;;;;;29.15;31.80;100954.06;4961413;28;98223;-58
2022/05/16 07:24:21;;;;;;;;;;;;;;;29.29;32.14;100948.66;4959090;28;98312;-47
2022/05/16 07:29:32;;;;;;;;;;;;;;;29.45;31.38;100947.59;4939769;28;98055;-58
2022/05/16 07:31:58;;;;;;;;;;;;;;;29.64;31.16;100944.59;4942513;28;97935;-47
2022/05/16 07:34:23;;;;;;;;;;;;;;;29.91;30.89;100947.97;4940976;28;98788;-57
2022/05/16 07:36:49;;;;;;;;;;;;;;;30.17;30.93;100943.34;4942542;28;128197;-48
2022/05/16 07:39:15;;;;;;;;;;;;;;;30.26;29.33;100941.81;4949350;28;128359;-49
2022/05/16 07:41:42;;;;;;;;;;;;;;;30.60;29.87;100941.53;4941144;28;117822;-47
2022/05/16 07:44:08;;;;;;;;;;;;;;;30.94;30.02;100936.47;4961409;28;97755;-58
2022/05/16 07:46:34;;;;;;;;;;;;;;;31.05;29.75;100937.28;4958029;28;127931;-58
2022/05/16 07:48:59;;;;;;;;;;;;;;;31.56;29.38;100932.56;4959578;28;128729;-58
2022/05/16 07:51:25;;;;;;;;;;;;;;;32.01;28.81;100930.88;4959982;28;116312;-58
2022/05/16 07:53:51;;;;;;;;;;;;;;;32.53;28.49;100927.50;4958550;28;128025;-58
2022/05/16 07:56:17;;;;;;;;;;;;;;;32.92;28.08;100929.25;4960284;28;99489;-58
2022/05/16 07:58:43;;;;;;;;;;;;;;;33.25;26.95;100919.47;4946546;28;98239;-47
2022/05/16 08:01:09;;;;;;;;;;;;;;;33.68;26.95;100914.31;4940514;28;101900;-58
2022/05/16 08:03:35;;;;;;;;;;;;;;;34.20;26.35;100914.13;4939746;28;127738;-58
2022/05/16 08:06:01;;;;;;;;;;;;;;;34.64;26.53;100917.16;4940017;28;99322;-58
2022/05/16 08:11:12;;;;;;;;;;;;;;;35.60;25.61;100906.41;4941202;28;98070;-48
2022/05/16 08:13:39;;;;;;;;;;;;;;;36.18;25.28;100909.69;4959922;28;128673;-58
2022/05/16 08:16:04;;;;;;;;;;;;;;;36.87;24.05;100901.34;4960660;28;97906;-58
2022/05/16 08:18:30;;;;;;;;;;;;;;;37.49;23.97;100895.78;4945907;28;127536;-48
2022/05/16 08:20:56;;;;;;;;;;;;;;;37.80;21.88;100894.13;4941735;28;115793;-47
2022/05/16 08:23:25;;;;;;;;;;;;;;;38.35;22.41;100893.38;4940750;28;99499;-46
2022/05/16 08:25:55;;;;;;;;;;;;;;;38.99;21.22;100889.34;4957790;28;98919;-56
2022/05/16 08:28:22;;;;;;;;;;;;;;;39.39;20.77;100893.66;4945566;28;98696;-57
2022/05/16 08:30:48;;;;;;;;;;;;;;;39.58;20.33;100886.91;4942322;28;97827;-56
2022/05/16 08:33:14;;;;;;;;;;;;;;;39.08;20.45;100882.22;4939772;28;128343;-56
2022/05/16 08:35:40;;;;;;;;;;;;;;;39.08;20.72;100890.66;4958846;28;127317;-46
2022/05/16 08:41:06;;;;;;;;;;;;;;;39.01;20.31;100881.19;4944775;28;97876;-56
2022/05/16 08:43:43;;;;;;;;;;;;;;;39.74;20.44;100880.31;4941793;28;128728;-48
2022/05/16 08:46:35;;;;;;;;;;;;;;;40.13;19.33;100878.88;4957893;28;98321;-56
2022/05/16 08:49:29;;;;;;;;;;;;;;;40.84;19.11;100874.47;4940684;28;98241;-48
2022/05/16 08:52:17;;;;;;;;;;;;;;;41.45;18.78;100881.16;4953259;28;111665;-56
2022/05/16 08:54:49;;;;;;;;;;;;;;;41.39;18.18;100877.38;4946884;28;98627;-56
2022/05/16 08:57:22;;;;;;;;;;;;;;;41.06;18.11;100865.88;4941159;28;97745;-46
2022/05/16 08:59:55;;;;;;;;;;;;;;;41.36;18.42;100862.13;4945563;28;121632;-47
2022/05/16 09:02:22;;;;;;;;;;;;;;;41.49;18.22;100872.50;4957977;28;113011;-44
2022/05/16 09:05:16;;;;;;;;;;;;;;;41.06;17.82;100875.13;4926293;28;98412;-56
2022/05/16 09:07:48;;;;;;;;;;;;;;;40.22;17.25;100861.19;4948529;28;98452;-56
2022/05/16 09:10:16;;;;;;;;;;;;;;;40.64;17.29;100864.38;4941387;28;97833;-46
2022/05/16 09:12:50;;;;;;;;;;;;;;;39.69;17.40;100864.75;4962452;28;98198;-56
2022/05/16 09:15:30;;;;;;;;;;;;;;;39.18;18.17;100862.09;4945086;28;112023;-45
2022/05/16 09:18:33;;;;;;;;;;;;;;;38.12;18.58;100860.69;4959221;28;127646;-47
2022/05/16 09:20:59;;;;;;;;;;;;;;;38.38;18.97;100850.28;4954733;28;98280;-46
2022/05/16 09:23:34;;;;;;;;;;;;;;;39.03;18.63;100850.56;4963118;28;97664;-56
2022/05/16 09:26:16;;;;;;;;;;;;;;;40.02;18.04;100849.47;4943730;28;127870;-45
2022/05/16 09:28:46;;;;;;;;;;;;;;;40.75;17.39;100857.47;4973847;28;121506;-56
2022/05/16 09:31:20;;;;;;;;;;;;;;;41.48;17.05;100851.16;4948643;28;97779;-56
2022/05/16 09:33:48;;;;;;;;;;;;;;;42.23;16.89;100850.53;4962184;28;98462;-47
2022/05/16 09:36:15;;;;;;;;;;;;;;;42.49;16.56;100840.38;4963363;28;98479;-47
2022/05/16 09:38:44;;;;;;;;;;;;;;;42.08;16.21;100841.91;4958764;28;98455;-56
2022/05/16 09:41:35;;;;;;;;;;;;;;;42.38;16.62;100831.59;4948670;28;99074;-56
2022/05/16 09:44:06;;;;;;;;;;;;;;;42.96;16.28;100835.19;4948502;28;98275;-55
2022/05/16 09:46:37;;;;;;;;;;;;;;;42.24;15.69;100824.59;4943161;28;99360;-56
2022/05/16 09:49:14;;;;;;;;;;;;;;;42.75;16.11;100825.75;4941645;28;98688;-57
2022/05/16 09:51:54;;;;;;;;;;;;;;;42.94;15.60;100830.00;4966010;28;98864;-46
2022/05/16 09:54:37;;;;;;;;;;;;;;;42.70;16.11;100826.41;4960608;28;119247;-48
2022/05/16 09:57:03;;;;;;;;;;;;;;;43.21;16.07;100814.09;4962042;28;99735;-56
2022/05/16 09:59:44;;;;;;;;;;;;;;;43.60;15.80;100815.63;4962724;28;98846;-46
2022/05/16 10:02:18;;;;;;;;;;;;;;;42.60;15.79;100808.66;4949452;28;98104;-46
2022/05/16 10:04:45;;;;;;;;;;;;;;;42.55;15.86;100812.16;4944151;28;98070;-46
2022/05/16 10:07:11;;;;;;;;;;;;;;;43.14;16.34;100793.34;4951245;28;97960;-56
2022/05/16 10:09:48;;;;;;;;;;;;;;;43.43;16.15;100791.03;4961993;28;113901;-56
2022/05/16 10:12:17;;;;;;;;;;;;;;;43.66;16.22;100789.41;4952223;28;98490;-57
2022/05/16 10:14:43;;;;;;;;;;;;;;;43.60;16.32;100786.47;4962465;28;104457;-56
2022/05/16 10:17:12;;;;;;;;;;;;;;;43.57;15.87;100787.44;4960674;28;98273;-56
2022/05/16 10:19:39;;;;;;;;;;;;;;;41.71;16.46;100787.50;4944255;28;114764;-55
2022/05/16 10:22:17;;;;;;;;;;;;;;;42.31;16.90;100781.00;4942705;28;98133;-46
2022/05/16 10:24:52;;;;;;;;;;;;;;;42.24;16.79;100775.69;4952720;28;97950;-55
2022/05/16 10:27:28;;;;;;;;;;;;;;;42.30;16.43;100773.78;4958331;28;98292;-56
2022/05/16 10:29:55;;;;;;;;;;;;;;;42.67;16.73;100768.69;4940472;28;98940;-45
2022/05/16 10:35:18;;;;;;;;;;;;;;;42.86;17.16;100772.94;4960428;28;98264;-56
2022/05/16 10:37:46;;;;;;;;;;;;;;;42.87;17.17;100762.38;4937512;28;98401;-57
2022/05/16 10:40:27;;;;;;;;;;;;;;;42.67;17.03;100757.34;4956653;28;98759;-46
2022/05/16 10:43:14;;;;;;;;;;;;;;;42.67;16.99;100762.22;4956654;28;99176;-47
2022/05/16 10:45:42;;;;;;;;;;;;;;;41.97;17.35;100760.38;4961703;28;97887;-57
2022/05/16 10:48:39;;;;;;;;;;;;;;;41.99;17.02;100755.03;4956062;28;114041;-46
2022/05/16 10:51:16;;;;;;;;;;;;;;;42.03;17.43;100749.97;4941426;28;98464;-56
2022/05/16 10:53:47;;;;;;;;;;;;;;;42.04;17.18;100745.88;4955416;28;98345;-45
2022/05/16 10:56:40;;;;;;;;;;;;;;;41.86;17.48;100737.50;4955599;28;98156;-49
2022/05/16 10:59:24;;;;;;;;;;;;;;;41.88;17.45;100737.78;4958167;28;125368;-46
2022/05/16 11:01:54;;;;;;;;;;;;;;;41.85;17.42;100736.69;4957774;28;126815;-46
2022/05/16 11:04:55;;;;;;;;;;;;;;;41.90;17.55;100729.63;4959666;28;98169;-57
2022/05/16 11:07:48;;;;;;;;;;;;;;;40.89;17.51;100730.53;4951478;28;97930;-47
2022/05/16 11:10:19;;;;;;;;;;;;;;;41.16;17.95;100729.78;4955239;28;98166;-57
2022/05/16 11:12:52;;;;;;;;;;;;;;;41.09;18.11;100720.84;4955023;28;97909;-46
2022/05/16 11:15:36;;;;;;;;;;;;;;;41.06;18.24;100711.25;4962205;28;121100;-57
2022/05/16 11:18:14;;;;;;;;;;;;;;;40.96;18.29;100715.31;4959590;28;97894;-46
2022/05/16 11:20:42;;;;;;;;;;;;;;;40.59;18.14;100718.13;4960369;28;97985;-47
2022/05/16 11:23:40;;;;;;;;;;;;;;;40.04;18.26;100717.19;4927268;28;99419;-55
2022/05/16 11:26:13;;;;;;;;;;;;;;;39.81;19.06;100708.00;4950725;28;119065;-46
2022/05/16 11:29:17;;;;;;;;;;;;;;;39.63;19.01;100717.16;4955637;28;111070;-56
2022/05/16 11:31:36;;;;;;;;;;;;;;;38.98;18.74;100704.66;4939430;28;99125;-44
2022/05/16 11:34:02;;;;;;;;;;;;;;;38.94;19.03;100706.81;4939556;28;98852;-57
2022/05/16 11:36:55;;;;;;;;;;;;;;;38.97;19.21;100696.66;4940340;28;127494;-45
2022/05/16 11:39:37;;;;;;;;;;;;;;;39.17;19.77;100699.94;4939777;28;97946;-46
2022/05/16 11:42:27;;;;;;;;;;;;;;;39.23;19.57;100694.53;4946382;28;128225;-57
2022/05/16 11:45:04;;;;;;;;;;;;;;;39.35;19.26;100699.31;4953417;28;98950;-45
2022/05/16 11:47:54;;;;;;;;;;;;;;;39.50;19.46;100702.38;4939952;28;98177;-47
2022/05/16 11:50:28;;;;;;;;;;;;;;;39.44;19.56;100695.75;4942467;28;98266;-57
2022/05/16 11:53:25;;;;;;;;;;;;;;;39.41;19.68;100694.63;4956260;28;98016;-57
2022/05/16 12:01:36;;;;;;;;;;;;;;;39.13;19.69;100678.78;4940930;28;97900;-57
2022/05/16 12:04:15;;;;;;;;;;;;;;;37.87;20.47;100670.19;4958891;28;99013;-57
2022/05/16 12:06:50;;;;;;;;;;;;;;;36.86;20.92;100673.16;4960983;28;99255;-57
2022/05/16 12:09:21;;;;;;;;;;;;;;;36.50;21.16;100666.91;4957816;28;98226;-56
2022/05/16 12:12:04;;;;;;;;;;;;;;;36.68;20.83;100660.81;4955852;28;97825;-46
2022/05/16 12:14:40;;;;;;;;;;;;;;;37.39;20.28;100660.81;4939155;28;98319;-57
2022/05/16 12:17:18;;;;;;;;;;;;;;;37.80;20.59;100663.56;4957443;28;108763;-47
2022/05/16 12:19:48;;;;;;;;;;;;;;;38.04;20.09;100654.78;4940762;28;97925;-56
2022/05/16 12:22:19;;;;;;;;;;;;;;;38.21;20.33;100655.47;4936982;28;113281;-47
2022/05/16 12:24:52;;;;;;;;;;;;;;;38.54;19.97;100667.19;4938802;28;97774;-56
2022/05/16 12:27:44;;;;;;;;;;;;;;;38.66;19.49;100666.34;4959026;28;98216;-46
2022/05/16 12:30:20;;;;;;;;;;;;;;;38.40;19.82;100662.06;4960027;28;98154;-47
2022/05/16 12:32:56;;;;;;;;;;;;;;;38.17;20.22;100663.22;4959018;28;98422;-45
2022/05/16 12:35:28;;;;;;;;;;;;;;;38.06;19.55;100664.38;4958522;28;98525;-46
2022/05/16 12:37:54;;;;;;;;;;;;;;;37.63;20.28;100662.09;4946426;28;103826;-60
2022/05/16 12:40:45;;;;;;;;;;;;;;;36.51;20.42;100655.25;4940018;28;98076;-45
2022/05/16 12:43:49;;;;;;;;;;;;;;;35.51;20.36;100659.63;4971314;28;98171;-45
2022/05/16 12:46:51;;;;;;;;;;;;;;;35.41;20.71;100659.41;4959855;28;98384;-56
2022/05/16 12:49:57;;;;;;;;;;;;;;;35.39;21.08;100656.22;4954199;28;127325;-45
2022/05/16 12:52:51;;;;;;;;;;;;;;;35.50;21.10;100652.44;4942229;28;98706;-56
2022/05/16 12:55:27;;;;;;;;;;;;;;;34.78;21.82;100650.25;4921473;28;98321;-56
2022/05/16 12:58:00;;;;;;;;;;;;;;;33.87;21.68;100647.34;4937334;28;98455;-56
2022/05/16 13:00:36;;;;;;;;;;;;;;;33.20;22.13;100637.91;4940745;28;98823;-45
2022/05/16 13:03:38;;;;;;;;;;;;;;;33.55;22.48;100641.47;4955023;28;98096;-45
2022/05/16 13:06:06;;;;;;;;;;;;;;;34.00;21.90;100630.06;4940444;28;97843;-56
2022/05/16 13:08:47;;;;;;;;;;;;;;;34.20;22.13;100628.13;4939729;28;120825;-57
2022/05/16 13:11:16;;;;;;;;;;;;;;;34.12;22.20;100626.66;4939709;28;98843;-45
2022/05/16 13:14:07;;;;;;;;;;;;;;;34.07;22.64;100633.50;4940533;28;98551;-57
2022/05/16 13:16:49;;;;;;;;;;;;;;;34.23;22.12;100627.25;4968566;28;110989;-44
2022/05/16 13:19:17;;;;;;;;;;;;;;;34.54;22.22;100627.91;4956611;28;122367;-46
2022/05/16 13:21:50;;;;;;;;;;;;;;;35.04;22.38;100634.59;4958597;28;98428;-45
2022/05/16 13:24:18;;;;;;;;;;;;;;;35.51;21.59;100621.19;4959185;28;98041;-45